sensor_id;sensor_type;location;lat;lon;timestamp;pressure;altitude;pressure_sealevel;temperature;humidity
46211;BME280;52144;48.040;-1.594;2023-02-18T00:00:26;102570.56;;;13.85;100.00
46211;BME280;52144;48.040;-1.594;2023-02-18T00:02:54;102563.53;;;13.81;100.00
46211;BME280;52144;48.040;-1.594;2023-02-18T00:05:22;102569.09;;;13.75;100.00
46211;BME280;52144;48.040;-1.594;2023-02-18T00:07:51;102560.75;;;13.54;100.00
46211;BME280;52144;48.040;-1.594;2023-02-18T00:10:19;102562.50;;;13.55;100.00
46211;BME280;52144;48.040;-1.594;2023-02-18T00:12:47;102563.47;;;13.84;100.00
46211;BME280;52144;48.040;-1.594;2023-02-18T00:15:15;102561.63;;;13.55;100.00
46211;BME280;52144;48.040;-1.594;2023-02-18T00:17:43;102563.72;;;14.04;100.00
46211;BME280;52144;48.040;-1.594;2023-02-18T00:20:11;102551.63;;;14.19;98.83
46211;BME280;52144;48.040;-1.594;2023-02-18T00:22:39;102557.16;;;14.15;99.21
46211;BME280;52144;48.040;-1.594;2023-02-18T00:25:08;102561.03;;;13.75;99.80
46211;BME280;52144;48.040;-1.594;2023-02-18T00:27:36;102556.97;;;13.61;100.00
46211;BME280;52144;48.040;-1.594;2023-02-18T00:30:05;102558.91;;;13.56;100.00
46211;BME280;52144;48.040;-1.594;2023-02-18T00:32:33;102559.94;;;13.52;100.00
46211;BME280;52144;48.040;-1.594;2023-02-18T00:35:01;102553.50;;;13.88;99.37
46211;BME280;52144;48.040;-1.594;2023-02-18T00:37:29;102553.94;;;14.02;99.59
46211;BME280;52144;48.040;-1.594;2023-02-18T00:40:00;102558.16;;;13.82;100.00
46211;BME280;52144;48.040;-1.594;2023-02-18T00:42:29;102545.63;;;14.11;97.69
46211;BME280;52144;48.040;-1.594;2023-02-18T00:44:57;102545.81;;;14.33;96.59
46211;BME280;52144;48.040;-1.594;2023-02-18T00:47:25;102550.59;;;14.23;96.94
46211;BME280;52144;48.040;-1.594;2023-02-18T00:49:52;102545.00;;;13.73;99.29
46211;BME280;52144;48.040;-1.594;2023-02-18T00:52:20;102546.63;;;13.79;100.00
46211;BME280;52144;48.040;-1.594;2023-02-18T00:54:49;102543.75;;;13.85;99.47
46211;BME280;52144;48.040;-1.594;2023-02-18T00:57:17;102544.13;;;13.73;99.68
46211;BME280;52144;48.040;-1.594;2023-02-18T00:59:46;102544.88;;;14.06;98.57
46211;BME280;52144;48.040;-1.594;2023-02-18T01:02:14;102546.22;;;14.21;96.95
46211;BME280;52144;48.040;-1.594;2023-02-18T01:04:41;102548.56;;;14.03;96.31
46211;BME280;52144;48.040;-1.594;2023-02-18T01:07:09;102541.56;;;14.26;97.31
46211;BME280;52144;48.040;-1.594;2023-02-18T01:09:37;102539.00;;;14.23;97.34
46211;BME280;52144;48.040;-1.594;2023-02-18T01:12:05;102544.06;;;14.32;96.43
46211;BME280;52144;48.040;-1.594;2023-02-18T01:14:33;102541.97;;;14.14;97.32
46211;BME280;52144;48.040;-1.594;2023-02-18T01:17:02;102541.06;;;14.15;96.59
46211;BME280;52144;48.040;-1.594;2023-02-18T01:19:30;102539.59;;;13.75;98.86
46211;BME280;52144;48.040;-1.594;2023-02-18T01:21:58;102535.50;;;13.93;98.42
46211;BME280;52144;48.040;-1.594;2023-02-18T01:24:26;102536.72;;;13.51;100.00
46211;BME280;52144;48.040;-1.594;2023-02-18T01:26:54;102538.13;;;13.94;98.95
46211;BME280;52144;48.040;-1.594;2023-02-18T01:29:21;102526.03;;;14.09;98.54
46211;BME280;52144;48.040;-1.594;2023-02-18T01:31:49;102537.25;;;14.22;97.32
46211;BME280;52144;48.040;-1.594;2023-02-18T01:34:19;102537.63;;;14.10;97.15
46211;BME280;52144;48.040;-1.594;2023-02-18T01:36:46;102539.34;;;14.12;97.53
46211;BME280;52144;48.040;-1.594;2023-02-18T01:39:14;102540.44;;;13.77;99.25
46211;BME280;52144;48.040;-1.594;2023-02-18T01:41:42;102538.81;;;14.01;97.61
46211;BME280;52144;48.040;-1.594;2023-02-18T01:44:12;102538.00;;;13.69;98.89
46211;BME280;52144;48.040;-1.594;2023-02-18T01:46:39;102545.94;;;13.72;98.63
46211;BME280;52144;48.040;-1.594;2023-02-18T01:49:08;102546.63;;;13.79;98.20
46211;BME280;52144;48.040;-1.594;2023-02-18T01:51:41;102543.56;;;13.61;99.91
46211;BME280;52144;48.040;-1.594;2023-02-18T01:54:12;102540.16;;;13.56;98.06
46211;BME280;52144;48.040;-1.594;2023-02-18T01:56:44;102530.94;;;13.67;99.67
46211;BME280;52144;48.040;-1.594;2023-02-18T01:59:17;102531.06;;;13.62;99.41
46211;BME280;52144;48.040;-1.594;2023-02-18T02:01:48;102529.03;;;13.70;98.09
46211;BME280;52144;48.040;-1.594;2023-02-18T02:04:16;102525.31;;;13.44;100.00
46211;BME280;52144;48.040;-1.594;2023-02-18T02:06:45;102522.22;;;13.60;98.24
46211;BME280;52144;48.040;-1.594;2023-02-18T02:09:15;102527.91;;;13.77;97.96
46211;BME280;52144;48.040;-1.594;2023-02-18T02:12:01;102523.94;;;13.91;97.63
46211;BME280;52144;48.040;-1.594;2023-02-18T02:14:49;102524.44;;;14.03;95.69
46211;BME280;52144;48.040;-1.594;2023-02-18T02:17:29;102516.88;;;13.58;97.81
46211;BME280;52144;48.040;-1.594;2023-02-18T02:23:34;102516.88;;;13.58;99.27
46211;BME280;52144;48.040;-1.594;2023-02-18T02:26:29;102515.09;;;13.59;97.52
46211;BME280;52144;48.040;-1.594;2023-02-18T02:29:20;102518.22;;;13.43;98.50
46211;BME280;52144;48.040;-1.594;2023-02-18T02:32:02;102522.78;;;13.70;98.13
46211;BME280;52144;48.040;-1.594;2023-02-18T02:34:41;102520.72;;;13.79;97.42
46211;BME280;52144;48.040;-1.594;2023-02-18T02:37:15;102512.22;;;13.65;98.33
46211;BME280;52144;48.040;-1.594;2023-02-18T02:39:59;102511.78;;;13.49;99.23
46211;BME280;52144;48.040;-1.594;2023-02-18T02:42:35;102510.78;;;13.53;99.29
46211;BME280;52144;48.040;-1.594;2023-02-18T02:45:10;102503.75;;;13.49;99.62
46211;BME280;52144;48.040;-1.594;2023-02-18T02:47:47;102507.25;;;12.89;100.00
46211;BME280;52144;48.040;-1.594;2023-02-18T02:50:21;102492.59;;;13.02;100.00
46211;BME280;52144;48.040;-1.594;2023-02-18T02:52:57;102495.19;;;13.05;100.00
46211;BME280;52144;48.040;-1.594;2023-02-18T02:55:25;102496.59;;;12.87;100.00
46211;BME280;52144;48.040;-1.594;2023-02-18T02:57:54;102496.75;;;13.45;100.00
46211;BME280;52144;48.040;-1.594;2023-02-18T03:00:30;102484.38;;;13.41;98.70
46211;BME280;52144;48.040;-1.594;2023-02-18T03:03:31;102490.34;;;13.51;99.86
46211;BME280;52144;48.040;-1.594;2023-02-18T03:06:15;102484.34;;;13.10;100.00
46211;BME280;52144;48.040;-1.594;2023-02-18T03:08:52;102475.28;;;13.15;100.00
46211;BME280;52144;48.040;-1.594;2023-02-18T03:11:24;102481.97;;;13.32;99.49
46211;BME280;52144;48.040;-1.594;2023-02-18T03:14:01;102481.09;;;13.61;99.27
46211;BME280;52144;48.040;-1.594;2023-02-18T03:16:35;102485.00;;;13.79;97.65
46211;BME280;52144;48.040;-1.594;2023-02-18T03:19:09;102473.66;;;13.71;97.06
46211;BME280;52144;48.040;-1.594;2023-02-18T03:21:44;102476.28;;;13.72;97.14
46211;BME280;52144;48.040;-1.594;2023-02-18T03:24:17;102471.81;;;13.43;97.06
46211;BME280;52144;48.040;-1.594;2023-02-18T03:26:51;102473.66;;;13.71;97.39
46211;BME280;52144;48.040;-1.594;2023-02-18T03:29:20;102469.13;;;13.73;96.54
46211;BME280;52144;48.040;-1.594;2023-02-18T03:31:52;102473.72;;;13.68;96.42
46211;BME280;52144;48.040;-1.594;2023-02-18T03:34:24;102471.25;;;13.61;95.66
46211;BME280;52144;48.040;-1.594;2023-02-18T03:36:55;102472.28;;;13.57;97.01
46211;BME280;52144;48.040;-1.594;2023-02-18T03:39:26;102465.63;;;13.71;94.82
46211;BME280;52144;48.040;-1.594;2023-02-18T03:41:55;102468.38;;;13.68;94.21
46211;BME280;52144;48.040;-1.594;2023-02-18T03:44:23;102465.88;;;13.61;94.13
46211;BME280;52144;48.040;-1.594;2023-02-18T03:46:52;102463.34;;;13.27;94.89
46211;BME280;52144;48.040;-1.594;2023-02-18T03:49:20;102461.25;;;13.07;96.48
46211;BME280;52144;48.040;-1.594;2023-02-18T03:51:48;102459.63;;;13.01;96.80
46211;BME280;52144;48.040;-1.594;2023-02-18T03:54:17;102449.25;;;13.20;95.35
46211;BME280;52144;48.040;-1.594;2023-02-18T03:56:45;102453.88;;;13.15;97.12
46211;BME280;52144;48.040;-1.594;2023-02-18T03:59:13;102449.13;;;12.94;98.36
46211;BME280;52144;48.040;-1.594;2023-02-18T04:01:41;102455.56;;;13.18;97.30
46211;BME280;52144;48.040;-1.594;2023-02-18T04:04:09;102449.34;;;13.17;98.26
46211;BME280;52144;48.040;-1.594;2023-02-18T04:06:36;102459.19;;;13.17;97.95
46211;BME280;52144;48.040;-1.594;2023-02-18T04:09:05;102457.16;;;13.25;97.91
46211;BME280;52144;48.040;-1.594;2023-02-18T04:11:37;102458.63;;;13.04;97.90
46211;BME280;52144;48.040;-1.594;2023-02-18T04:14:05;102457.66;;;12.75;96.43
46211;BME280;52144;48.040;-1.594;2023-02-18T04:16:33;102459.78;;;12.95;100.00
46211;BME280;52144;48.040;-1.594;2023-02-18T04:19:01;102455.50;;;13.21;99.39
46211;BME280;52144;48.040;-1.594;2023-02-18T04:21:29;102457.50;;;13.44;97.69
46211;BME280;52144;48.040;-1.594;2023-02-18T04:23:56;102456.25;;;12.95;99.90
46211;BME280;52144;48.040;-1.594;2023-02-18T04:26:24;102459.09;;;12.89;100.00
46211;BME280;52144;48.040;-1.594;2023-02-18T04:28:53;102451.75;;;13.27;99.24
46211;BME280;52144;48.040;-1.594;2023-02-18T04:31:21;102466.88;;;12.96;98.81
46211;BME280;52144;48.040;-1.594;2023-02-18T04:33:50;102458.47;;;13.10;96.76
46211;BME280;52144;48.040;-1.594;2023-02-18T04:36:17;102464.09;;;13.01;95.29
46211;BME280;52144;48.040;-1.594;2023-02-18T04:38:45;102451.91;;;12.91;98.46
46211;BME280;52144;48.040;-1.594;2023-02-18T04:41:13;102462.44;;;12.97;96.68
46211;BME280;52144;48.040;-1.594;2023-02-18T04:43:41;102460.66;;;12.96;98.38
46211;BME280;52144;48.040;-1.594;2023-02-18T04:46:10;102455.97;;;13.04;97.09
46211;BME280;52144;48.040;-1.594;2023-02-18T04:48:38;102455.66;;;12.83;100.00
46211;BME280;52144;48.040;-1.594;2023-02-18T04:51:06;102450.94;;;12.93;99.55
46211;BME280;52144;48.040;-1.594;2023-02-18T04:53:34;102453.56;;;12.95;98.38
46211;BME280;52144;48.040;-1.594;2023-02-18T04:56:02;102453.84;;;12.51;100.00
46211;BME280;52144;48.040;-1.594;2023-02-18T04:58:30;102455.25;;;12.99;100.00
46211;BME280;52144;48.040;-1.594;2023-02-18T05:00:59;102455.31;;;12.96;100.00
46211;BME280;52144;48.040;-1.594;2023-02-18T05:03:31;102459.84;;;12.92;100.00
46211;BME280;52144;48.040;-1.594;2023-02-18T05:05:59;102457.63;;;13.08;100.00
46211;BME280;52144;48.040;-1.594;2023-02-18T05:08:27;102457.75;;;13.05;100.00
46211;BME280;52144;48.040;-1.594;2023-02-18T05:10:54;102462.59;;;13.22;98.40
46211;BME280;52144;48.040;-1.594;2023-02-18T05:13:22;102456.56;;;13.15;96.28
46211;BME280;52144;48.040;-1.594;2023-02-18T05:15:52;102464.63;;;12.82;98.19
46211;BME280;52144;48.040;-1.594;2023-02-18T05:18:20;102462.59;;;12.58;99.79
46211;BME280;52144;48.040;-1.594;2023-02-18T05:20:49;102464.34;;;12.59;99.63
46211;BME280;52144;48.040;-1.594;2023-02-18T05:23:17;102465.34;;;12.55;100.00
46211;BME280;52144;48.040;-1.594;2023-02-18T05:25:45;102466.88;;;12.29;100.00
46211;BME280;52144;48.040;-1.594;2023-02-18T05:28:13;102464.28;;;12.62;100.00
46211;BME280;52144;48.040;-1.594;2023-02-18T05:30:41;102461.28;;;12.74;100.00
46211;BME280;52144;48.040;-1.594;2023-02-18T05:33:09;102457.13;;;12.28;100.00
46211;BME280;52144;48.040;-1.594;2023-02-18T05:35:37;102454.84;;;12.47;100.00
46211;BME280;52144;48.040;-1.594;2023-02-18T05:38:06;102461.16;;;12.09;100.00
46211;BME280;52144;48.040;-1.594;2023-02-18T05:40:35;102449.53;;;12.45;100.00
46211;BME280;52144;48.040;-1.594;2023-02-18T05:43:03;102458.16;;;12.57;100.00
46211;BME280;52144;48.040;-1.594;2023-02-18T05:45:31;102466.00;;;12.64;100.00
46211;BME280;52144;48.040;-1.594;2023-02-18T05:47:58;102459.50;;;12.73;100.00
46211;BME280;52144;48.040;-1.594;2023-02-18T05:50:26;102462.16;;;12.75;100.00
46211;BME280;52144;48.040;-1.594;2023-02-18T05:52:54;102468.19;;;12.81;100.00
46211;BME280;52144;48.040;-1.594;2023-02-18T05:55:23;102459.31;;;12.47;100.00
46211;BME280;52144;48.040;-1.594;2023-02-18T05:57:51;102460.09;;;12.52;100.00
46211;BME280;52144;48.040;-1.594;2023-02-18T06:00:20;102463.84;;;12.44;100.00
46211;BME280;52144;48.040;-1.594;2023-02-18T06:02:48;102452.19;;;12.45;100.00
46211;BME280;52144;48.040;-1.594;2023-02-18T06:05:15;102458.84;;;12.31;100.00
46211;BME280;52144;48.040;-1.594;2023-02-18T06:07:43;102459.63;;;12.36;100.00
46211;BME280;52144;48.040;-1.594;2023-02-18T06:10:11;102460.94;;;12.18;100.00
46211;BME280;52144;48.040;-1.594;2023-02-18T06:12:40;102457.13;;;12.28;100.00
46211;BME280;52144;48.040;-1.594;2023-02-18T06:15:08;102465.00;;;12.34;100.00
46211;BME280;52144;48.040;-1.594;2023-02-18T06:17:36;102455.69;;;12.49;100.00
46211;BME280;52144;48.040;-1.594;2023-02-18T06:20:05;102456.47;;;12.54;98.65
46211;BME280;52144;48.040;-1.594;2023-02-18T06:22:33;102457.75;;;12.72;100.00
46211;BME280;52144;48.040;-1.594;2023-02-18T06:25:01;102458.91;;;12.95;100.00
46211;BME280;52144;48.040;-1.594;2023-02-18T06:27:28;102457.81;;;13.02;100.00
46211;BME280;52144;48.040;-1.594;2023-02-18T06:29:57;102464.94;;;13.03;100.00
46211;BME280;52144;48.040;-1.594;2023-02-18T06:32:25;102461.13;;;13.10;100.00
46211;BME280;52144;48.040;-1.594;2023-02-18T06:34:53;102456.44;;;13.18;99.70
46211;BME280;52144;48.040;-1.594;2023-02-18T06:37:21;102456.00;;;12.71;100.00
46211;BME280;52144;48.040;-1.594;2023-02-18T06:39:49;102457.03;;;12.65;98.85
46211;BME280;52144;48.040;-1.594;2023-02-18T06:42:16;102458.97;;;12.60;97.94
46211;BME280;52144;48.040;-1.594;2023-02-18T06:44:44;102461.13;;;12.46;99.68
46211;BME280;52144;48.040;-1.594;2023-02-18T06:47:13;102451.16;;;12.51;98.62
46211;BME280;52144;48.040;-1.594;2023-02-18T06:49:41;102449.13;;;12.27;100.00
46211;BME280;52144;48.040;-1.594;2023-02-18T06:52:09;102451.28;;;12.48;100.00
46211;BME280;52144;48.040;-1.594;2023-02-18T06:54:37;102451.06;;;12.56;100.00
46211;BME280;52144;48.040;-1.594;2023-02-18T06:57:04;102446.75;;;12.50;100.00
46211;BME280;52144;48.040;-1.594;2023-02-18T06:59:33;102446.97;;;12.42;100.00
46211;BME280;52144;48.040;-1.594;2023-02-18T07:02:01;102449.41;;;12.52;99.46
46211;BME280;52144;48.040;-1.594;2023-02-18T07:04:30;102448.13;;;12.65;100.00
46211;BME280;52144;48.040;-1.594;2023-02-18T07:06:58;102439.59;;;12.83;99.62
46211;BME280;52144;48.040;-1.594;2023-02-18T07:09:25;102443.78;;;12.94;99.05
46211;BME280;52144;48.040;-1.594;2023-02-18T07:11:53;102445.16;;;12.76;100.00
46211;BME280;52144;48.040;-1.594;2023-02-18T07:14:21;102450.31;;;12.83;99.80
46211;BME280;52144;48.040;-1.594;2023-02-18T07:16:49;102451.06;;;12.89;99.77
46211;BME280;52144;48.040;-1.594;2023-02-18T07:19:17;102450.91;;;12.62;100.00
46211;BME280;52144;48.040;-1.594;2023-02-18T07:21:46;102453.59;;;12.62;98.89
46211;BME280;52144;48.040;-1.594;2023-02-18T07:24:14;102458.03;;;12.27;100.00
46211;BME280;52144;48.040;-1.594;2023-02-18T07:26:42;102465.09;;;11.94;100.00
46211;BME280;52144;48.040;-1.594;2023-02-18T07:29:10;102465.34;;;12.20;100.00
46211;BME280;52144;48.040;-1.594;2023-02-18T07:31:37;102468.47;;;12.38;99.55
46211;BME280;52144;48.040;-1.594;2023-02-18T07:34:05;102472.31;;;12.26;100.00
46211;BME280;52144;48.040;-1.594;2023-02-18T07:36:33;102473.47;;;12.52;100.00
46211;BME280;52144;48.040;-1.594;2023-02-18T07:39:02;102473.84;;;12.36;100.00
46211;BME280;52144;48.040;-1.594;2023-02-18T07:41:30;102472.84;;;12.40;100.00
46211;BME280;52144;48.040;-1.594;2023-02-18T07:43:58;102480.91;;;12.73;99.65
46211;BME280;52144;48.040;-1.594;2023-02-18T07:46:26;102485.88;;;12.54;98.17
46211;BME280;52144;48.040;-1.594;2023-02-18T07:48:53;102492.72;;;12.64;100.00
46211;BME280;52144;48.040;-1.594;2023-02-18T07:51:22;102493.69;;;12.62;100.00
46211;BME280;52144;48.040;-1.594;2023-02-18T07:53:51;102501.91;;;12.89;100.00
46211;BME280;52144;48.040;-1.594;2023-02-18T07:56:20;102501.16;;;12.82;98.95
46211;BME280;52144;48.040;-1.594;2023-02-18T07:58:48;102495.69;;;12.54;100.00
46211;BME280;52144;48.040;-1.594;2023-02-18T08:01:16;102501.25;;;12.44;100.00
46211;BME280;52144;48.040;-1.594;2023-02-18T08:03:44;102509.47;;;12.37;100.00
46211;BME280;52144;48.040;-1.594;2023-02-18T08:06:20;102506.97;;;12.29;100.00
46211;BME280;52144;48.040;-1.594;2023-02-18T08:08:48;102505.13;;;12.67;98.24
46211;BME280;52144;48.040;-1.594;2023-02-18T08:11:16;102510.94;;;12.50;97.78
46211;BME280;52144;48.040;-1.594;2023-02-18T08:13:46;102511.28;;;12.36;100.00
46211;BME280;52144;48.040;-1.594;2023-02-18T08:16:14;102516.09;;;12.58;97.80
46211;BME280;52144;48.040;-1.594;2023-02-18T08:18:42;102512.13;;;12.73;98.74
46211;BME280;52144;48.040;-1.594;2023-02-18T08:21:10;102511.00;;;12.81;97.99
46211;BME280;52144;48.040;-1.594;2023-02-18T08:23:38;102520.63;;;12.89;96.84
46211;BME280;52144;48.040;-1.594;2023-02-18T08:26:06;102519.84;;;12.83;98.53
46211;BME280;52144;48.040;-1.594;2023-02-18T08:28:35;102519.78;;;12.87;96.33
46211;BME280;52144;48.040;-1.594;2023-02-18T08:31:05;102524.22;;;12.88;95.33
46211;BME280;52144;48.040;-1.594;2023-02-18T08:33:33;102516.94;;;13.25;97.44
46211;BME280;52144;48.040;-1.594;2023-02-18T08:36:00;102515.16;;;13.24;94.72
46211;BME280;52144;48.040;-1.594;2023-02-18T08:38:33;102519.00;;;13.14;96.35
46211;BME280;52144;48.040;-1.594;2023-02-18T08:41:02;102520.00;;;13.43;95.03
46211;BME280;52144;48.040;-1.594;2023-02-18T08:43:31;102521.84;;;13.41;93.35
46211;BME280;52144;48.040;-1.594;2023-02-18T08:45:59;102528.53;;;13.24;95.17
46211;BME280;52144;48.040;-1.594;2023-02-18T08:48:29;102518.63;;;13.30;95.01
46211;BME280;52144;48.040;-1.594;2023-02-18T08:50:57;102518.53;;;13.33;93.90
46211;BME280;52144;48.040;-1.594;2023-02-18T08:53:26;102523.56;;;13.11;93.95
46211;BME280;52144;48.040;-1.594;2023-02-18T08:55:55;102529.44;;;12.92;95.63
46211;BME280;52144;48.040;-1.594;2023-02-18T08:58:23;102529.44;;;12.92;94.63
46211;BME280;52144;48.040;-1.594;2023-02-18T09:00:51;102530.06;;;12.68;96.48
46211;BME280;52144;48.040;-1.594;2023-02-18T09:03:19;102525.38;;;13.10;94.80
46211;BME280;52144;48.040;-1.594;2023-02-18T09:05:49;102520.97;;;13.09;95.31
46211;BME280;52144;48.040;-1.594;2023-02-18T09:08:17;102529.06;;;13.39;93.35
46211;BME280;52144;48.040;-1.594;2023-02-18T09:10:46;102525.72;;;13.31;94.98
46211;BME280;52144;48.040;-1.594;2023-02-18T09:13:14;102523.44;;;13.48;92.84
46211;BME280;52144;48.040;-1.594;2023-02-18T09:15:42;102527.97;;;13.13;97.23
46211;BME280;52144;48.040;-1.594;2023-02-18T09:18:11;102538.13;;;13.00;97.38
46211;BME280;52144;48.040;-1.594;2023-02-18T09:20:39;102531.06;;;13.31;95.32
46211;BME280;52144;48.040;-1.594;2023-02-18T09:23:08;102533.94;;;13.56;92.46
46211;BME280;52144;48.040;-1.594;2023-02-18T09:25:38;102530.56;;;13.79;91.22
46211;BME280;52144;48.040;-1.594;2023-02-18T09:28:07;102541.97;;;13.56;93.00
46211;BME280;52144;48.040;-1.594;2023-02-18T09:30:35;102534.38;;;13.40;92.18
46211;BME280;52144;48.040;-1.594;2023-02-18T09:33:03;102528.50;;;13.26;92.99
46211;BME280;52144;48.040;-1.594;2023-02-18T09:35:31;102528.50;;;13.26;92.46
46211;BME280;52144;48.040;-1.594;2023-02-18T09:37:58;102533.00;;;12.93;96.10
46211;BME280;52144;48.040;-1.594;2023-02-18T09:40:31;102528.22;;;12.71;94.46
46211;BME280;52144;48.040;-1.594;2023-02-18T09:43:01;102526.97;;;13.50;91.88
46211;BME280;52144;48.040;-1.594;2023-02-18T09:45:29;102525.84;;;14.15;87.03
46211;BME280;52144;48.040;-1.594;2023-02-18T09:47:57;102528.09;;;13.71;87.12
46211;BME280;52144;48.040;-1.594;2023-02-18T09:50:28;102530.47;;;14.10;86.93
46211;BME280;52144;48.040;-1.594;2023-02-18T09:52:57;102527.91;;;13.77;87.96
46211;BME280;52144;48.040;-1.594;2023-02-18T09:55:29;102525.56;;;13.67;88.86
46211;BME280;52144;48.040;-1.594;2023-02-18T09:58:00;102536.56;;;13.87;89.08
46211;BME280;52144;48.040;-1.594;2023-02-18T10:00:33;102531.16;;;13.59;90.46
46211;BME280;52144;48.040;-1.594;2023-02-18T10:03:04;102533.75;;;13.31;90.04
46211;BME280;52144;48.040;-1.594;2023-02-18T10:05:35;102535.53;;;13.91;88.54
46211;BME280;52144;48.040;-1.594;2023-02-18T10:08:05;102536.16;;;13.99;88.11
46211;BME280;52144;48.040;-1.594;2023-02-18T10:10:39;102535.78;;;13.54;89.93
46211;BME280;52144;48.040;-1.594;2023-02-18T10:13:12;102538.34;;;13.57;89.64
46211;BME280;52144;48.040;-1.594;2023-02-18T10:15:42;102529.53;;;13.83;88.13
46211;BME280;52144;48.040;-1.594;2023-02-18T10:18:22;102532.50;;;14.30;84.90
46211;BME280;52144;48.040;-1.594;2023-02-18T10:20:54;102542.13;;;13.79;86.51
46211;BME280;52144;48.040;-1.594;2023-02-18T10:23:24;102540.41;;;13.78;85.52
46211;BME280;52144;48.040;-1.594;2023-02-18T10:25:54;102542.00;;;13.54;87.27
46211;BME280;52144;48.040;-1.594;2023-02-18T10:28:23;102545.81;;;13.77;85.91
46211;BME280;52144;48.040;-1.594;2023-02-18T10:30:57;102548.91;;;13.61;88.28
46211;BME280;52144;48.040;-1.594;2023-02-18T10:33:32;102547.06;;;13.01;91.56
46211;BME280;52144;48.040;-1.594;2023-02-18T10:36:08;102547.34;;;13.23;92.46
46211;BME280;52144;48.040;-1.594;2023-02-18T10:38:46;102547.25;;;12.93;96.78
46211;BME280;52144;48.040;-1.594;2023-02-18T10:41:27;102536.00;;;13.46;95.50
46211;BME280;52144;48.040;-1.594;2023-02-18T10:44:02;102545.03;;;14.01;93.63
46211;BME280;52144;48.040;-1.594;2023-02-18T10:46:38;102539.38;;;13.82;91.61
46211;BME280;52144;48.040;-1.594;2023-02-18T10:49:23;102537.66;;;13.50;91.32
46211;BME280;52144;48.040;-1.594;2023-02-18T10:51:58;102539.75;;;13.39;90.34
46211;BME280;52144;48.040;-1.594;2023-02-18T10:54:48;102535.22;;;14.29;86.88
46211;BME280;52144;48.040;-1.594;2023-02-18T10:57:19;102534.91;;;14.11;86.31
46211;BME280;52144;48.040;-1.594;2023-02-18T10:59:55;102530.69;;;14.59;84.46
46211;BME280;52144;48.040;-1.594;2023-02-18T11:02:25;102525.25;;;14.87;84.70
46211;BME280;52144;48.040;-1.594;2023-02-18T11:04:57;102527.69;;;14.41;82.33
46211;BME280;52144;48.040;-1.594;2023-02-18T11:07:30;102530.72;;;14.02;83.30
46211;BME280;52144;48.040;-1.594;2023-02-18T11:10:01;102522.50;;;13.49;87.19
46211;BME280;52144;48.040;-1.594;2023-02-18T11:12:44;102521.41;;;14.14;84.42
46211;BME280;52144;48.040;-1.594;2023-02-18T11:15:18;102521.28;;;14.19;83.70
46211;BME280;52144;48.040;-1.594;2023-02-18T11:17:48;102518.34;;;14.80;80.48
46211;BME280;52144;48.040;-1.594;2023-02-18T11:20:26;102512.09;;;14.79;79.72
46211;BME280;52144;48.040;-1.594;2023-02-18T11:23:15;102514.72;;;14.28;82.29
46211;BME280;52144;48.040;-1.594;2023-02-18T11:25:56;102523.91;;;13.92;84.78
46211;BME280;52144;48.040;-1.594;2023-02-18T11:28:34;102526.22;;;13.75;83.96
46211;BME280;52144;48.040;-1.594;2023-02-18T11:31:07;102531.69;;;14.00;84.94
46211;BME280;52144;48.040;-1.594;2023-02-18T11:33:38;102515.06;;;13.89;86.01
46211;BME280;52144;48.040;-1.594;2023-02-18T11:36:16;102526.31;;;14.28;83.58
46211;BME280;52144;48.040;-1.594;2023-02-18T11:38:48;102521.06;;;14.25;82.36
46211;BME280;52144;48.040;-1.594;2023-02-18T11:41:18;102517.84;;;14.14;83.17
46211;BME280;52144;48.040;-1.594;2023-02-18T11:43:50;102522.38;;;14.12;81.80
46211;BME280;52144;48.040;-1.594;2023-02-18T11:46:21;102520.84;;;14.59;80.33
46211;BME280;52144;48.040;-1.594;2023-02-18T11:48:50;102522.41;;;14.38;80.23
46211;BME280;52144;48.040;-1.594;2023-02-18T11:51:20;102522.09;;;14.21;80.31
46211;BME280;52144;48.040;-1.594;2023-02-18T11:53:56;102515.09;;;14.43;79.76
46211;BME280;52144;48.040;-1.594;2023-02-18T11:56:28;102515.91;;;14.19;80.01
46211;BME280;52144;48.040;-1.594;2023-02-18T11:58:57;102518.09;;;13.48;84.05
46211;BME280;52144;48.040;-1.594;2023-02-18T12:01:36;102515.75;;;13.65;83.46
46211;BME280;52144;48.040;-1.594;2023-02-18T12:04:11;102518.88;;;13.52;84.74
46211;BME280;52144;48.040;-1.594;2023-02-18T12:06:46;102505.97;;;13.94;82.48
46211;BME280;52144;48.040;-1.594;2023-02-18T12:09:25;102515.09;;;14.17;80.48
46211;BME280;52144;48.040;-1.594;2023-02-18T12:11:55;102505.06;;;14.75;77.30
46211;BME280;52144;48.040;-1.594;2023-02-18T12:14:27;102501.34;;;14.79;78.71
46211;BME280;52144;48.040;-1.594;2023-02-18T12:17:13;102502.97;;;14.32;79.05
46211;BME280;52144;48.040;-1.594;2023-02-18T12:20:18;102499.25;;;14.09;80.99
46211;BME280;52144;48.040;-1.594;2023-02-18T12:22:57;102496.13;;;14.23;81.38
46211;BME280;52144;48.040;-1.594;2023-02-18T12:25:35;102491.09;;;14.39;80.82
46211;BME280;52144;48.040;-1.594;2023-02-18T12:28:16;102493.00;;;14.09;82.34
46211;BME280;52144;48.040;-1.594;2023-02-18T12:31:05;102487.03;;;14.27;80.75
46211;BME280;52144;48.040;-1.594;2023-02-18T12:33:46;102492.28;;;14.30;80.06
46211;BME280;52144;48.040;-1.594;2023-02-18T12:36:27;102481.47;;;14.33;79.26
46211;BME280;52144;48.040;-1.594;2023-02-18T12:39:07;102479.25;;;13.91;80.04
46211;BME280;52144;48.040;-1.594;2023-02-18T12:41:45;102472.28;;;14.40;76.61
46211;BME280;52144;48.040;-1.594;2023-02-18T12:44:29;102471.38;;;14.15;76.99
46211;BME280;52144;48.040;-1.594;2023-02-18T12:47:20;102463.50;;;13.82;79.68
46211;BME280;52144;48.040;-1.594;2023-02-18T12:50:13;102456.81;;;14.22;78.55
46211;BME280;52144;48.040;-1.594;2023-02-18T12:52:56;102464.69;;;14.27;79.97
46211;BME280;52144;48.040;-1.594;2023-02-18T12:55:42;102448.06;;;14.69;77.29
46211;BME280;52144;48.040;-1.594;2023-02-18T12:58:25;102452.22;;;14.77;78.02
46211;BME280;52144;48.040;-1.594;2023-02-18T13:01:09;102446.31;;;14.93;75.79